Skip Navigation LinksHome page > Weather > Current weather Skip Navigation Links

Current Weather

Lansing Muni, Lansing, Ill.

For information only: do not use for flight planning or navigation.
Latest weather
Observation time Monday, January 24, 2022 10:55 PM CST
Local time Monday, January 24, 2022 11:21 PM CST
Flight conditions Visual Meteorological Conditions
Winds
Wind direction West-Northwest (290°)
Wind speed 6 mph
Visibility 10 mi.
Sky condition
Ceiling unlimited
Sky clear
Temperature 10°F
Dewpoint 3°F
Altimeter 30.01 in.Hg
Derived measurements
Relative humidity 73%
Wind chill 1°F
Density altitude -2860 ft.
Remarks
Fully automated report.
Automated weather observing station with precipitation discriminator.
METAR KIGQ 250455Z AUTO 29005KT 10SM CLR M12/M16 A3001 RMK AO2 T11211159

Settings

Location code

InnerDrive.Weather 4.0.6770.0 Release CLR 4.0.30319.42000
Copyright ©2018 Inner Drive Technology. All rights reserved. Portions Copyright ©1986-2018 David Braverman.

Find weather

Site navigation


Skip Navigation Links

Place info

Page info

PayPal - The safer, easier way to pay online!

Return home.

Copyright ©2022 Inner Drive Technology. Purveyors of fine, hand-crafted computer software. Page printed 2022-01-25T05:21:48 UTC.